createdAt,value
2023-01-03T00:01:24.537Z,5.03
2023-01-03T00:06:27.297Z,6.27
2023-01-03T00:11:48.602Z,5.25
2023-01-03T00:16:50.795Z,4.47
2023-01-03T00:21:52.135Z,4.78
2023-01-03T00:26:53.468Z,4.18
2023-01-03T00:31:54.945Z,3.40
2023-01-03T00:36:56.328Z,4.78
2023-01-03T00:41:57.598Z,4.20
2023-01-03T00:46:58.979Z,4.45
2023-01-03T00:52:00.253Z,6.85
2023-01-03T00:57:01.577Z,4.60
2023-01-03T01:02:03.026Z,4.47
2023-01-03T01:07:04.461Z,5.20
2023-01-03T01:12:06.901Z,5.45
2023-01-03T01:17:08.566Z,6.30
2023-01-03T01:22:10.844Z,5.00
2023-01-03T01:27:12.130Z,6.07
2023-01-03T01:32:13.430Z,4.07
2023-01-03T01:37:14.779Z,5.22
2023-01-03T01:42:34.668Z,5.13
2023-01-03T01:47:41.209Z,4.70
2023-01-03T01:52:45.737Z,7.72
2023-01-03T01:57:47.314Z,5.53
2023-01-03T02:02:50.710Z,5.93
2023-01-03T02:07:52.747Z,7.25
2023-01-03T02:13:08.441Z,6.63
2023-01-03T02:18:28.041Z,7.13
2023-01-03T02:23:38.593Z,9.33
2023-01-03T02:28:57.286Z,5.72
2023-01-03T02:34:21.325Z,8.52
2023-01-03T02:39:27.900Z,10.73
2023-01-03T02:44:33.478Z,4.50
2023-01-03T02:49:37.104Z,7.03
2023-01-03T02:54:41.946Z,4.25
2023-01-03T02:59:47.762Z,5.60
2023-01-03T03:04:51.123Z,4.63
2023-01-03T03:10:11.351Z,6.75
2023-01-03T03:15:14.576Z,5.47
2023-01-03T03:20:36.029Z,6.05
2023-01-03T03:25:37.285Z,4.78
2023-01-03T03:30:40.251Z,6.90
2023-01-03T03:35:44.931Z,6.85
2023-01-03T03:41:13.165Z,5.77
2023-01-03T03:46:18.205Z,6.18
2023-01-03T03:51:20.072Z,6.43
2023-01-03T03:56:24.137Z,4.78
2023-01-03T04:01:27.146Z,5.80
2023-01-03T04:06:33.750Z,6.97
2023-01-03T04:11:35.670Z,6.55
2023-01-03T04:16:37.700Z,5.50
2023-01-03T04:21:39.167Z,6.32
2023-01-03T04:26:40.419Z,5.50
2023-01-03T04:31:41.730Z,5.43
2023-01-03T04:36:43.039Z,6.55
2023-01-03T04:41:44.368Z,6.07
2023-01-03T04:46:52.351Z,5.78
2023-01-03T04:51:54.205Z,5.70
2023-01-03T04:56:55.516Z,7.43
2023-01-03T05:01:56.807Z,7.00
2023-01-03T05:06:58.198Z,7.15
2023-01-03T05:11:59.498Z,6.28
2023-01-03T05:17:00.844Z,7.38
2023-01-03T05:22:20.723Z,6.57
2023-01-03T05:27:22.408Z,6.15
2023-01-03T05:32:25.074Z,4.97
2023-01-03T05:37:26.527Z,6.80
2023-01-03T05:42:27.949Z,6.03
2023-01-03T05:47:29.216Z,7.43
2023-01-03T05:52:30.567Z,8.25
2023-01-03T05:57:35.422Z,8.07
2023-01-03T06:02:37.102Z,5.68
2023-01-03T06:07:38.426Z,6.85
2023-01-03T06:12:39.752Z,6.37
2023-01-03T06:17:58.711Z,5.65
2023-01-03T06:23:00.100Z,7.05
2023-01-03T06:28:01.407Z,5.72
2023-01-03T06:33:02.878Z,7.70
2023-01-03T06:38:04.157Z,7.33
2023-01-03T06:43:05.431Z,7.18
2023-01-03T06:48:25.854Z,7.13
2023-01-03T06:53:30.973Z,8.52
2023-01-03T06:58:32.350Z,9.23
2023-01-03T07:03:33.628Z,9.37
2023-01-03T07:08:35.245Z,7.32
2023-01-03T07:13:55.224Z,6.63
2023-01-03T07:18:56.946Z,8.68
2023-01-03T07:23:59.230Z,7.88
2023-01-03T07:29:01.601Z,10.47
2023-01-03T07:34:02.964Z,8.05
2023-01-03T07:39:04.666Z,7.38
2023-01-03T07:44:05.961Z,8.45
2023-01-03T07:49:11.415Z,9.70
2023-01-03T07:54:13.588Z,9.27
2023-01-03T07:59:14.878Z,9.52
2023-01-03T08:04:16.195Z,11.45
2023-01-03T08:09:36.344Z,9.35
2023-01-03T08:14:37.602Z,11.02
2023-01-03T08:19:45.166Z,8.10
2023-01-03T08:24:46.856Z,8.27
2023-01-03T08:29:48.141Z,8.25
2023-01-03T08:34:49.843Z,7.22
2023-01-03T08:39:54.015Z,9.65
2023-01-03T08:44:57.775Z,9.77
2023-01-03T08:49:59.697Z,12.00
2023-01-03T08:55:00.996Z,10.80
2023-01-03T09:00:02.422Z,12.85
2023-01-03T09:05:03.891Z,11.18
2023-01-03T09:10:05.380Z,12.57
2023-01-03T09:15:07.285Z,10.02
2023-01-03T09:20:08.840Z,10.32
2023-01-03T09:25:10.261Z,16.15
2023-01-03T09:30:21.348Z,15.43
2023-01-03T09:35:22.612Z,13.23
2023-01-03T09:40:24.417Z,12.65
2023-01-03T09:45:29.930Z,12.13
2023-01-03T09:50:57.166Z,11.65
2023-01-03T09:56:25.661Z,13.68
2023-01-03T10:01:52.619Z,11.93
2023-01-03T10:07:08.265Z,10.63
2023-01-03T10:12:25.538Z,12.85
2023-01-03T10:17:33.420Z,17.25
2023-01-03T10:22:35.928Z,18.60
2023-01-03T10:27:45.276Z,17.77
2023-01-03T10:32:46.550Z,12.90
2023-01-03T10:37:49.917Z,15.23
2023-01-03T10:42:55.308Z,15.73
2023-01-03T10:48:00.645Z,9.63
2023-01-03T10:53:06.343Z,9.10
2023-01-03T10:58:20.138Z,7.70
2023-01-03T11:03:23.582Z,10.40
2023-01-03T11:08:44.514Z,8.07
2023-01-03T11:13:45.784Z,8.15
2023-01-03T11:18:59.171Z,6.97
2023-01-03T11:24:07.938Z,6.82
2023-01-03T11:29:38.094Z,11.32
2023-01-03T11:35:20.298Z,7.23
2023-01-03T11:40:07.842Z,6.70
2023-01-03T11:45:41.895Z,8.57
2023-01-03T11:50:52.131Z,6.88
2023-01-03T11:55:59.295Z,5.32
2023-01-03T12:01:06.616Z,7.47
2023-01-03T12:06:18.054Z,5.32
2023-01-03T12:11:26.434Z,5.30
2023-01-03T12:16:33.551Z,4.35
2023-01-03T12:21:35.856Z,5.05
2023-01-03T12:26:41.737Z,4.83
2023-01-03T12:31:53.872Z,6.22
2023-01-03T12:36:57.901Z,10.27
2023-01-03T12:42:05.489Z,6.57
2023-01-03T12:47:10.590Z,8.57
2023-01-03T12:52:17.163Z,3.93
2023-01-03T12:57:18.761Z,5.45
2023-01-03T13:02:21.668Z,6.83
2023-01-03T13:07:25.900Z,6.43
2023-01-03T13:12:31.572Z,9.45
2023-01-03T13:17:42.697Z,3.67
2023-01-03T13:22:46.158Z,3.92
2023-01-03T13:27:50.562Z,7.97
2023-01-03T13:32:53.452Z,5.57
2023-01-03T13:37:56.816Z,7.45
2023-01-03T13:43:02.742Z,5.13
2023-01-03T13:48:22.879Z,5.32
2023-01-03T13:53:24.086Z,4.53
2023-01-03T13:58:37.250Z,6.25
2023-01-03T14:03:47.377Z,7.85
2023-01-03T14:09:06.800Z,7.40
2023-01-03T14:14:11.493Z,4.88
2023-01-03T14:19:18.527Z,6.03
2023-01-03T14:24:30.109Z,4.43
2023-01-03T14:29:32.249Z,3.85
2023-01-03T14:34:35.211Z,4.17
2023-01-03T14:44:36.810Z,6.40
2023-01-03T14:49:43.580Z,6.43
2023-01-03T14:54:46.413Z,10.65
2023-01-03T14:59:48.550Z,7.40
2023-01-03T15:04:52.093Z,7.68
2023-01-03T15:10:01.835Z,5.47
2023-01-03T15:15:07.347Z,7.90
2023-01-03T15:20:09.135Z,14.57
2023-01-03T15:25:18.683Z,8.97
2023-01-03T15:30:23.215Z,11.68
2023-01-03T15:35:50.798Z,7.43
2023-01-03T15:40:52.414Z,8.30
2023-01-03T15:46:00.972Z,10.27
2023-01-03T15:51:02.847Z,14.90
2023-01-03T15:56:06.341Z,16.33
2023-01-03T16:01:08.399Z,12.18
2023-01-03T16:06:09.797Z,12.10
2023-01-03T16:11:28.055Z,9.10
2023-01-03T16:16:38.120Z,12.03
2023-01-03T16:21:39.450Z,13.40
2023-01-03T16:26:40.712Z,16.60
2023-01-03T16:31:43.163Z,16.75
2023-01-03T16:36:47.229Z,15.05
2023-01-03T16:42:08.103Z,17.77
2023-01-03T16:47:14.781Z,13.93
2023-01-03T16:52:18.457Z,11.77
2023-01-03T16:57:20.876Z,23.02
2023-01-03T17:02:22.466Z,21.33
2023-01-03T17:07:24.150Z,27.83
2023-01-03T17:12:25.455Z,20.05
2023-01-03T17:17:26.757Z,15.80
2023-01-03T17:22:28.068Z,23.10
2023-01-03T17:27:33.019Z,16.95
2023-01-03T17:32:34.939Z,18.37
2023-01-03T17:37:57.962Z,18.00
2023-01-03T17:42:57.782Z,25.42
2023-01-03T17:48:18.649Z,21.45
2023-01-03T17:53:21.312Z,19.52
2023-01-03T17:58:27.474Z,20.80
2023-01-03T18:03:30.584Z,14.02
2023-01-03T18:08:32.676Z,11.80
2023-01-03T18:13:35.517Z,12.52
2023-01-03T18:18:36.896Z,14.38
2023-01-03T18:23:38.758Z,14.33
2023-01-03T18:28:40.070Z,11.43
2023-01-03T18:33:41.326Z,14.93
2023-01-03T18:38:42.680Z,13.68
2023-01-03T18:43:43.992Z,21.08
2023-01-03T18:48:45.315Z,22.63
2023-01-03T18:53:48.479Z,19.95
2023-01-03T18:58:53.340Z,19.42
2023-01-03T19:03:58.329Z,18.50
2023-01-03T19:09:00.676Z,16.30
2023-01-03T19:14:03.810Z,17.63
2023-01-03T19:19:07.425Z,15.43
2023-01-03T19:24:29.719Z,16.40
2023-01-03T19:29:37.626Z,16.50
2023-01-03T19:34:38.926Z,18.20
2023-01-03T19:39:40.278Z,17.83
2023-01-03T19:44:41.928Z,20.80
2023-01-03T19:49:43.669Z,20.25
2023-01-03T19:54:45.273Z,19.35
2023-01-03T19:59:49.475Z,16.75
2023-01-03T20:04:50.933Z,20.33
2023-01-03T20:09:52.320Z,20.02
2023-01-03T20:14:58.745Z,20.33
2023-01-03T20:20:04.235Z,22.13
2023-01-03T20:25:06.595Z,22.13
2023-01-03T20:30:17.459Z,21.60
2023-01-03T20:40:42.624Z,18.35
2023-01-03T20:45:44.681Z,20.70
2023-01-03T20:50:45.958Z,20.02
2023-01-03T20:55:47.519Z,20.13
2023-01-03T21:00:48.940Z,18.27
2023-01-03T21:05:50.632Z,18.75
2023-01-03T21:10:54.980Z,17.75
2023-01-03T21:15:56.541Z,15.32
2023-01-03T21:20:57.853Z,17.60
2023-01-03T21:25:59.120Z,16.00
2023-01-03T21:31:04.952Z,20.55
2023-01-03T21:36:09.640Z,20.02
2023-01-03T21:41:21.841Z,19.83
2023-01-03T21:46:23.619Z,20.20
2023-01-03T21:51:35.473Z,19.38
2023-01-03T21:56:45.633Z,17.85
2023-01-03T22:02:06.817Z,17.85
2023-01-03T22:07:08.361Z,20.48
2023-01-03T22:12:09.683Z,16.80
2023-01-03T22:17:11.001Z,19.00
2023-01-03T22:22:12.439Z,18.30
2023-01-03T22:27:13.800Z,17.50
2023-01-03T22:32:15.163Z,14.18
2023-01-03T22:37:16.603Z,16.07
2023-01-03T22:42:19.830Z,15.55
2023-01-03T22:47:21.321Z,18.42
2023-01-03T22:52:22.631Z,19.35
2023-01-03T22:57:23.921Z,17.17
2023-01-03T23:02:29.127Z,17.33
2023-01-03T23:07:30.868Z,16.80
2023-01-03T23:12:51.082Z,19.83
2023-01-03T23:17:58.313Z,18.00
2023-01-03T23:23:05.747Z,20.05
2023-01-03T23:28:07.054Z,16.90
2023-01-03T23:33:08.450Z,19.23
2023-01-03T23:38:09.781Z,17.70
2023-01-03T23:43:11.258Z,17.45
2023-01-03T23:48:12.584Z,16.95
2023-01-03T23:53:13.919Z,18.87
2023-01-03T23:58:15.207Z,16.30
